Vinings, Georgia
Current Conditions -  °F | °C
As of 6:58 PM on Saturday 25 Oct 2014 (Local Time) from KMGE Reporting Station
Clear Clear  
Wind Chill: 66°   Ceiling: Unl
Heat Index: 66°   Visibility: 10mi
Dew Point: 50°   Wind: 7mph
Humidity: 56%   Direction: 270°W
Pressure: 30.03"   Gusts: NA
Location:  33.87°N, 84.47°W
Report Text: KMGE 252258Z 27006KT 10SM CLR 19/10 A3003 RMK AO2A SLP169 T01880099 $
Loading
Personal Weather Stations






























Interactive Weather Map New forecast layout! Learn more

10-Day Weather Forecast

Advertisements
Track Severe Weather on mobile